Pace, Louisiana
Current Conditions -  °F | °C
As of 2:15 PM on Sunday 25 Jan 2015 (Local Time) from KMNE Reporting Station
Clear Clear  
Wind Chill: 65°   Ceiling: Unl
Heat Index: 65°   Visibility: 10mi
Dew Point: 35°   Wind: 14mph
Humidity: 32%   Direction: 290°WNW
Pressure: 29.86"   Gusts: 32mph
Location:  32.7093°N, 93.3068°W
Report Text: KMNE 252015Z AUTO 29012G28KT 10SM CLR 19/01 A2986 RMK AO2 T01850014
Loading
Personal Weather Stations






























Interactive Weather Map New forecast layout! Learn more

10-Day Weather Forecast

Advertisements
Track Severe Weather on mobile